This is the latest recevied weather packets stored in our database for station/object IU5JAE-13. If no packets are shown the sender has not sent any weather packets the latest 10 day(s).
| Time | Temp. | Humidity | Pressure | Rain* | Wind** | Luminosity | Snow |
|---|---|---|---|---|---|---|---|
| 1777490115 | 15.56° C | 49% | 1015.7 hPa | 0 mm | - | 0 W/m² | - |
| 1777489533 | 15.56° C | 51% | 1015.5 hPa | 0 mm | - | 0 W/m² | - |
| 1777488931 | 16.11° C | 49% | 1015.4 hPa | 0 mm | - | 0 W/m² | - |
| 1777488328 | 17.22° C | 47% | 1015.3 hPa | 0 mm | - | 0 W/m² | - |
| 1777487726 | 17.22° C | 45% | 1015.1 hPa | 0 mm | - | 0 W/m² | - |
| 1777487123 | 17.78° C | 43% | 1015.1 hPa | 0 mm | - | 1 W/m² | - |
| 1777486521 | 17.22° C | 44% | 1014.9 hPa | 0 mm | - | 3 W/m² | - |
| 1777485919 | 17.78° C | 43% | 1014.9 hPa | 0 mm | - | 7 W/m² | - |
| 1777485317 | 17.78° C | 46% | 1014.8 hPa | 0 mm | - | 12 W/m² | - |
| 1777484734 | 17.78° C | 46% | 1014.8 hPa | 0 mm | - | 16 W/m² | - |
| 1777484131 | 17.78° C | 47% | 1014.6 hPa | 0 mm | - | 20 W/m² | - |
| 1777483529 | 18.33° C | 46% | 1014.5 hPa | 0 mm | - | 23 W/m² | - |
| 1777482927 | 17.78° C | 47% | 1014.5 hPa | 0 mm | - | 26 W/m² | - |
| 1777482324 | 18.33° C | 44% | 1014.5 hPa | 0 mm | - | 29 W/m² | - |
| 1777481722 | 18.33° C | 47% | 1014.6 hPa | 0 mm | - | 31 W/m² | - |
| 1777481119 | 18.89° C | 44% | 1014.6 hPa | 0 mm | - | 33 W/m² | - |
| 1777480517 | 18.89° C | 45% | 1014.5 hPa | 0 mm | - | 35 W/m² | - |
| 1777479935 | 19.44° C | 44% | 1014.6 hPa | 0 mm | - | 46 W/m² | - |
| 1777479332 | 20° C | 42% | 1014.6 hPa | 0 mm | - | 134 W/m² | - |
| 1777478730 | 20° C | 40% | 1014.7 hPa | 0 mm | - | 163 W/m² | - |
| 1777478127 | 20.56° C | 41% | 1014.8 hPa | 0 mm | - | 185 W/m² | - |
| 1777477525 | 20.56° C | 40% | 1014.8 hPa | 0 mm | - | 205 W/m² | - |
| 1777476923 | 20° C | 41% | 1014.9 hPa | 0 mm | - | 228 W/m² | - |
| 1777476320 | 20.56° C | 40% | 1014.9 hPa | 0 mm | - | 252 W/m² | - |
| 1777475718 | 20.56° C | 39% | 1014.9 hPa | 0 mm | - | 277 W/m² | - |
* Rain latest hour (hover to see other rain measurements)
** Current wind speed in m/s (hover to see current wind gust speed)